Time,TemperatureF,DewpointF,PressureIn,WindDirection,WindDirectionDegrees,WindSpeedMPH,WindSpeedGustMPH,Humidity,HourlyPrecipIn,Conditions,Clouds,dailyrainin,SolarRadiationWatts/m^2,SoftwareType,DateUTC
2013-06-16 00:00:00,52.8,45.8,30.02,SSW,207,0.0,3.0,77,0.00,,,0.00,0002,Weather View 32 v70,2013-06-16 07:00:00,
2013-06-16 00:10:00,52.6,45.9,30.02,SSW,207,0.0,2.0,78,0.00,,,0.00,0001,Weather View 32 v70,2013-06-16 07:10:00,
2013-06-16 00:15:00,52.4,45.7,30.02,SSE,162,0.0,2.0,78,0.00,,,0.00,0002,Weather View 32 v70,2013-06-16 07:15:00,
2013-06-16 00:20:00,52.1,45.8,30.02,SE,139,0.0,2.0,79,0.00,,,0.00,0002,Weather View 32 v70,2013-06-16 07:20:00,
2013-06-16 00:25:00,52.1,46.4,30.02,SSE,162,0.0,2.0,81,0.00,,,0.00,0001,Weather View 32 v70,2013-06-16 07:25:00,
2013-06-16 00:30:00,52.0,46.3,30.02,South,184,0.0,2.0,81,0.00,,,0.00,0001,Weather View 32 v70,2013-06-16 07:30:00,
2013-06-16 00:40:00,52.5,47.2,30.02,SSW,207,0.0,2.0,82,0.00,,,0.00,0002,Weather View 32 v70,2013-06-16 07:40:00,
2013-06-16 00:45:00,52.4,46.7,30.02,SSW,207,0.0,2.0,81,0.00,,,0.00,0002,Weather View 32 v70,2013-06-16 07:45:00,
2013-06-16 00:50:00,52.4,46.7,30.02,SW,229,0.0,2.0,81,0.00,,,0.00,0002,Weather View 32 v70,2013-06-16 07:50:00,
2013-06-16 00:55:00,52.3,46.6,30.02,South,184,0.0,2.0,81,0.00,,,0.00,0002,Weather View 32 v70,2013-06-16 07:55:00,
2013-06-16 01:00:00,52.2,46.5,30.02,SSW,207,0.0,2.0,81,0.00,,,0.00,0002,Weather View 32 v70,2013-06-16 08:00:00,
2013-06-16 01:10:00,52.0,46.3,30.02,WSW,252,0.0,1.0,81,0.00,,,0.00,0001,Weather View 32 v70,2013-06-16 08:10:00,
2013-06-16 01:15:00,51.9,46.2,30.02,SW,229,0.0,1.0,81,0.00,,,0.00,0002,Weather View 32 v70,2013-06-16 08:15:00,
2013-06-16 01:20:00,51.8,46.1,30.02,WSW,252,0.0,1.0,81,0.00,,,0.00,0001,Weather View 32 v70,2013-06-16 08:20:00,
2013-06-16 01:30:00,51.5,46.2,30.02,South,184,0.0,1.0,82,0.00,,,0.00,0002,Weather View 32 v70,2013-06-16 08:30:00,
2013-06-16 01:35:00,51.3,46.0,30.02,South,184,0.0,0.0,82,0.00,,,0.00,0002,Weather View 32 v70,2013-06-16 08:35:00,
2013-06-16 01:40:00,51.1,45.8,30.02,SW,229,0.0,0.0,82,0.00,,,0.00,0002,Weather View 32 v70,2013-06-16 08:40:00,
2013-06-16 01:45:00,51.0,45.7,30.02,SSW,207,0.0,0.0,82,0.00,,,0.00,0001,Weather View 32 v70,2013-06-16 08:45:00,
2013-06-16 01:50:00,50.9,45.9,30.02,SSW,207,0.0,0.0,83,0.00,,,0.00,0001,Weather View 32 v70,2013-06-16 08:50:00,
2013-06-16 02:00:00,50.8,45.8,30.02,SSW,207,0.0,0.0,83,0.00,,,0.00,0002,Weather View 32 v70,2013-06-16 09:00:00,
2013-06-16 02:05:00,50.8,46.1,30.02,SW,229,0.0,0.0,84,0.00,,,0.00,0001,Weather View 32 v70,2013-06-16 09:05:00,
2013-06-16 02:10:00,50.8,46.1,30.02,West,274,0.0,0.0,84,0.00,,,0.00,0002,Weather View 32 v70,2013-06-16 09:10:00,
2013-06-16 02:15:00,50.8,46.1,30.02,SSW,207,0.0,0.0,84,0.00,,,0.00,0002,Weather View 32 v70,2013-06-16 09:15:00,
2013-06-16 02:20:00,50.8,46.1,30.02,South,184,0.0,0.0,84,0.00,,,0.00,0001,Weather View 32 v70,2013-06-16 09:20:00,
2013-06-16 02:25:00,50.7,46.0,30.02,SSE,162,0.0,0.0,84,0.00,,,0.00,0001,Weather View 32 v70,2013-06-16 09:25:00,
2013-06-16 02:35:00,50.7,46.3,30.02,SSW,207,0.0,0.0,85,0.00,,,0.00,0001,Weather View 32 v70,2013-06-16 09:35:00,
2013-06-16 02:40:00,50.7,46.3,30.02,SW,229,1.0,1.0,85,0.00,,,0.00,0001,Weather View 32 v70,2013-06-16 09:40:00,
2013-06-16 02:45:00,50.8,46.4,30.02,SW,229,0.0,1.0,85,0.00,,,0.00,0001,Weather View 32 v70,2013-06-16 09:45:00,
2013-06-16 02:55:00,50.5,46.2,30.02,SSW,207,0.0,1.0,85,0.00,,,0.00,0002,Weather View 32 v70,2013-06-16 09:55:00,
2013-06-16 03:00:00,50.5,46.2,30.02,South,184,0.0,1.0,85,0.00,,,0.00,0001,Weather View 32 v70,2013-06-16 10:00:00,
2013-06-16 03:05:00,50.4,46.1,30.02,SSW,207,0.0,1.0,85,0.00,,,0.00,0001,Weather View 32 v70,2013-06-16 10:05:00,
2013-06-16 03:10:00,50.3,46.3,30.02,SSW,207,0.0,1.0,86,0.00,,,0.00,0001,Weather View 32 v70,2013-06-16 10:10:00,
2013-06-16 03:15:00,50.1,46.1,30.02,South,184,0.0,1.0,86,0.00,,,0.00,0001,Weather View 32 v70,2013-06-16 10:15:00,
2013-06-16 03:25:00,49.8,45.8,30.02,SE,139,0.0,1.0,86,0.00,,,0.00,0001,Weather View 32 v70,2013-06-16 10:25:00,
2013-06-16 03:30:00,49.7,45.7,30.02,SE,139,0.0,1.0,86,0.00,,,0.00,0001,Weather View 32 v70,2013-06-16 10:30:00,
2013-06-16 03:40:00,49.5,46.1,30.02,SSW,207,0.0,1.0,88,0.00,,,0.00,0002,Weather View 32 v70,2013-06-16 10:40:00,
2013-06-16 03:45:00,49.5,46.1,30.03,SW,229,0.0,1.0,88,0.00,,,0.00,0002,Weather View 32 v70,2013-06-16 10:45:00,
2013-06-16 03:55:00,49.5,46.1,30.02,SSW,207,0.0,1.0,88,0.00,,,0.00,0002,Weather View 32 v70,2013-06-16 10:55:00,
2013-06-16 04:00:00,49.5,46.1,30.03,WSW,252,0.0,0.0,88,0.00,,,0.00,0001,Weather View 32 v70,2013-06-16 11:00:00,
2013-06-16 04:05:00,49.6,46.5,30.03,South,184,0.0,0.0,89,0.00,,,0.00,0001,Weather View 32 v70,2013-06-16 11:05:00,
2013-06-16 04:10:00,49.6,46.5,30.03,SSW,207,0.0,0.0,89,0.00,,,0.00,0001,Weather View 32 v70,2013-06-16 11:10:00,
2013-06-16 04:15:00,49.5,46.4,30.03,SSE,162,0.0,0.0,89,0.00,,,0.00,0001,Weather View 32 v70,2013-06-16 11:15:00,
2013-06-16 04:25:00,49.5,46.4,30.03,WSW,252,0.0,0.0,89,0.00,,,0.00,0002,Weather View 32 v70,2013-06-16 11:25:00,
2013-06-16 04:30:00,49.6,46.5,30.03,SW,229,0.0,0.0,89,0.00,,,0.00,0001,Weather View 32 v70,2013-06-16 11:30:00,
2013-06-16 04:35:00,49.4,46.3,30.03,SSW,207,0.0,0.0,89,0.00,,,0.00,0001,Weather View 32 v70,2013-06-16 11:35:00,
2013-06-16 04:40:00,49.5,46.4,30.03,SSE,162,0.0,0.0,89,0.00,,,0.00,0001,Weather View 32 v70,2013-06-16 11:40:00,
2013-06-16 04:45:00,49.4,46.3,30.03,South,184,0.0,0.0,89,0.00,,,0.00,0001,Weather View 32 v70,2013-06-16 11:45:00,
2013-06-16 04:55:00,49.2,46.4,30.04,WSW,252,0.0,0.0,90,0.00,,,0.00,0002,Weather View 32 v70,2013-06-16 11:55:00,
2013-06-16 05:00:00,49.3,46.5,30.04,WSW,252,0.0,0.0,90,0.00,,,0.00,0001,Weather View 32 v70,2013-06-16 12:00:00,
2013-06-16 05:05:00,49.3,46.5,30.04,SSE,162,0.0,0.0,90,0.00,,,0.00,0002,Weather View 32 v70,2013-06-16 12:05:00,
2013-06-16 05:10:00,49.3,46.5,30.04,SW,229,0.0,0.0,90,0.00,,,0.00,0002,Weather View 32 v70,2013-06-16 12:10:00,
2013-06-16 05:19:00,49.3,46.5,30.04,SW,229,0.0,0.0,90,0.00,,,0.00,0002,Weather View 32 v70,2013-06-16 12:19:00,
2013-06-16 05:25:00,49.0,46.2,30.04,South,184,0.0,0.0,90,0.00,,,0.00,0002,Weather View 32 v70,2013-06-16 12:25:00,
2013-06-16 05:30:00,49.0,46.2,30.04,WSW,252,0.0,0.0,90,0.00,,,0.00,0002,Weather View 32 v70,2013-06-16 12:30:00,
2013-06-16 05:35:00,49.0,46.2,30.04,South,184,0.0,0.0,90,0.00,,,0.00,0003,Weather View 32 v70,2013-06-16 12:35:00,
2013-06-16 05:45:00,49.1,46.3,30.04,South,184,0.0,0.0,90,0.00,,,0.00,0006,Weather View 32 v70,2013-06-16 12:45:00,
2013-06-16 05:50:00,49.0,46.2,30.04,South,184,0.0,0.0,90,0.00,,,0.00,0009,Weather View 32 v70,2013-06-16 12:50:00,
2013-06-16 05:55:00,49.0,46.2,30.04,South,184,0.0,0.0,90,0.00,,,0.00,0022,Weather View 32 v70,2013-06-16 12:55:00,
2013-06-16 06:00:00,49.0,46.2,30.05,South,184,0.0,0.0,90,0.00,,,0.00,0034,Weather View 32 v70,2013-06-16 13:00:00,
2013-06-16 06:10:00,49.3,46.5,30.05,South,184,0.0,0.0,90,0.00,,,0.00,0064,Weather View 32 v70,2013-06-16 13:10:00,
2013-06-16 06:15:00,49.5,46.7,30.05,South,184,0.0,0.0,90,0.00,,,0.00,0078,Weather View 32 v70,2013-06-16 13:15:00,
2013-06-16 06:20:00,49.9,47.1,30.05,South,184,0.0,0.0,90,0.00,,,0.00,0095,Weather View 32 v70,2013-06-16 13:20:00,
2013-06-16 06:30:00,51.0,47.9,30.05,South,184,0.0,0.0,89,0.00,,,0.00,0122,Weather View 32 v70,2013-06-16 13:30:00,
2013-06-16 06:40:00,52.8,49.0,30.05,South,184,0.0,0.0,87,0.00,,,0.00,0148,Weather View 32 v70,2013-06-16 13:40:00,
2013-06-16 06:45:00,53.4,49.0,30.05,ESE,117,0.0,0.0,85,0.00,,,0.00,0161,Weather View 32 v70,2013-06-16 13:45:00,
2013-06-16 06:50:00,53.7,49.0,30.05,ESE,117,0.0,1.0,84,0.00,,,0.00,0173,Weather View 32 v70,2013-06-16 13:50:00,
2013-06-16 06:55:00,53.8,48.4,30.05,ENE,72,2.0,3.0,82,0.00,,,0.00,0186,Weather View 32 v70,2013-06-16 13:55:00,
2013-06-16 07:00:00,54.2,48.5,30.06,ESE,117,1.0,3.0,81,0.00,,,0.00,0199,Weather View 32 v70,2013-06-16 14:00:00,
2013-06-16 07:10:00,55.3,49.2,30.06,ESE,117,1.0,3.0,80,0.00,,,0.00,0224,Weather View 32 v70,2013-06-16 14:10:00,
2013-06-16 07:15:00,55.6,49.2,30.06,ENE,72,1.0,3.0,79,0.00,,,0.00,0237,Weather View 32 v70,2013-06-16 14:15:00,
2013-06-16 07:20:00,56.3,49.5,30.06,ENE,72,0.0,3.0,78,0.00,,,0.00,0249,Weather View 32 v70,2013-06-16 14:20:00,
2013-06-16 07:29:00,56.9,49.0,30.06,NNE,27,1.0,3.0,75,0.00,,,0.00,0274,Weather View 32 v70,2013-06-16 14:29:00,
2013-06-16 07:35:00,56.9,49.0,30.07,ESE,117,2.0,3.0,75,0.00,,,0.00,0287,Weather View 32 v70,2013-06-16 14:35:00,
2013-06-16 07:40:00,56.5,48.3,30.07,ESE,117,2.0,4.0,74,0.00,,,0.00,0299,Weather View 32 v70,2013-06-16 14:40:00,
2013-06-16 07:45:00,57.0,48.8,30.07,SE,139,1.0,4.0,74,0.00,,,0.00,0311,Weather View 32 v70,2013-06-16 14:45:00,
2013-06-16 07:55:00,58.0,49.4,30.07,North,4,2.0,4.0,73,0.00,,,0.00,0336,Weather View 32 v70,2013-06-16 14:55:00,
2013-06-16 08:00:00,58.4,49.4,30.07,West,274,1.0,4.0,72,0.00,,,0.00,0347,Weather View 32 v70,2013-06-16 15:00:00,
2013-06-16 08:05:00,58.4,49.0,30.07,NNE,27,3.0,5.0,71,0.00,,,0.00,0360,Weather View 32 v70,2013-06-16 15:05:00,
2013-06-16 08:10:00,58.8,49.4,30.07,WSW,252,1.0,5.0,71,0.00,,,0.00,0372,Weather View 32 v70,2013-06-16 15:10:00,
2013-06-16 08:15:00,58.9,49.1,30.08,North,4,3.0,5.0,70,0.00,,,0.00,0383,Weather View 32 v70,2013-06-16 15:15:00,
2013-06-16 08:21:00,59.5,49.3,30.08,SE,139,1.0,5.0,69,0.00,,,0.00,0396,Weather View 32 v70,2013-06-16 15:21:00,
2013-06-16 08:30:00,60.3,49.7,30.08,South,184,1.0,5.0,68,0.00,,,0.00,0420,Weather View 32 v70,2013-06-16 15:30:00,
2013-06-16 08:35:00,60.7,49.7,30.08,East,94,1.0,5.0,67,0.00,,,0.00,0432,Weather View 32 v70,2013-06-16 15:35:00,
2013-06-16 08:40:00,60.8,48.9,30.08,NE,49,3.0,5.0,65,0.00,,,0.00,0445,Weather View 32 v70,2013-06-16 15:40:00,
2013-06-16 08:50:00,61.8,49.5,30.08,North,4,2.0,5.0,64,0.00,,,0.00,0471,Weather View 32 v70,2013-06-16 15:50:00,
2013-06-16 08:55:00,62.5,50.1,30.08,NNE,27,3.0,5.0,64,0.00,,,0.00,0482,Weather View 32 v70,2013-06-16 15:55:00,
2013-06-16 09:00:00,63.1,50.7,30.08,NE,49,3.0,5.0,64,0.00,,,0.00,0495,Weather View 32 v70,2013-06-16 16:00:00,
2013-06-16 09:05:00,62.8,49.6,30.08,East,94,1.0,5.0,62,0.00,,,0.00,0508,Weather View 32 v70,2013-06-16 16:05:00,
2013-06-16 09:10:00,63.3,50.0,30.08,ESE,117,1.0,4.0,62,0.00,,,0.00,0522,Weather View 32 v70,2013-06-16 16:10:00,
2013-06-16 09:20:00,63.5,49.3,30.08,ESE,117,2.0,5.0,60,0.00,,,0.00,0547,Weather View 32 v70,2013-06-16 16:20:00,
2013-06-16 09:25:00,64.2,50.0,30.08,NE,49,1.0,5.0,60,0.00,,,0.00,0559,Weather View 32 v70,2013-06-16 16:25:00,
2013-06-16 09:30:00,64.9,50.2,30.08,ESE,117,3.0,5.0,59,0.00,,,0.00,0574,Weather View 32 v70,2013-06-16 16:30:00,
2013-06-16 09:35:00,64.5,49.4,30.08,ESE,117,2.0,5.0,58,0.00,,,0.00,0585,Weather View 32 v70,2013-06-16 16:35:00,
2013-06-16 09:45:00,66.7,50.9,30.08,East,94,4.0,5.0,57,0.00,,,0.00,0611,Weather View 32 v70,2013-06-16 16:45:00,
2013-06-16 09:50:00,67.1,50.8,30.08,SSW,207,1.0,5.0,56,0.00,,,0.00,0624,Weather View 32 v70,2013-06-16 16:50:00,
2013-06-16 10:00:00,66.3,50.1,30.08,NW,319,3.0,6.0,56,0.00,,,0.00,0646,Weather View 32 v70,2013-06-16 17:00:00,
2013-06-16 10:05:00,66.0,49.3,30.08,NNW,342,4.0,7.0,55,0.00,,,0.00,0659,Weather View 32 v70,2013-06-16 17:05:00,
2013-06-16 10:10:00,67.2,50.9,30.08,NW,319,3.0,7.0,56,0.00,,,0.00,0672,Weather View 32 v70,2013-06-16 17:10:00,
2013-06-16 10:20:00,69.0,50.6,30.08,West,274,1.0,7.0,52,0.00,,,0.00,0694,Weather View 32 v70,2013-06-16 17:20:00,
2013-06-16 10:25:00,69.7,50.2,30.07,ENE,72,3.0,7.0,50,0.00,,,0.00,0706,Weather View 32 v70,2013-06-16 17:25:00,
2013-06-16 10:30:00,70.6,50.5,30.08,ESE,117,2.0,7.0,49,0.00,,,0.00,0716,Weather View 32 v70,2013-06-16 17:30:00,
2013-06-16 10:35:00,71.8,51.0,30.07,East,94,3.0,7.0,48,0.00,,,0.00,0726,Weather View 32 v70,2013-06-16 17:35:00,
2013-06-16 10:45:00,72.4,47.9,30.07,NW,319,2.0,7.0,42,0.00,,,0.00,0741,Weather View 32 v70,2013-06-16 17:45:00,
2013-06-16 10:50:00,72.9,48.4,30.08,SE,139,0.0,7.0,42,0.00,,,0.00,0747,Weather View 32 v70,2013-06-16 17:50:00,
2013-06-16 10:55:00,72.9,45.0,30.08,North,4,3.0,9.0,37,0.00,,,0.00,0755,Weather View 32 v70,2013-06-16 17:55:00,
2013-06-16 11:00:00,72.3,44.5,30.08,SSW,207,11.0,11.0,37,0.00,,,0.00,0762,Weather View 32 v70,2013-06-16 18:00:00,
2013-06-16 11:05:00,73.1,45.2,30.08,WSW,252,4.0,11.0,37,0.00,,,0.00,0770,Weather View 32 v70,2013-06-16 18:05:00,
2013-06-16 11:15:00,73.4,44.7,30.08,SSW,207,3.0,11.0,36,0.00,,,0.00,0783,Weather View 32 v70,2013-06-16 18:15:00,
2013-06-16 11:20:00,73.3,45.4,30.08,NNW,342,6.0,11.0,37,0.00,,,0.00,0790,Weather View 32 v70,2013-06-16 18:20:00,
2013-06-16 11:25:00,73.5,44.8,30.08,NE,49,3.0,11.0,36,0.00,,,0.00,0794,Weather View 32 v70,2013-06-16 18:25:00,
2013-06-16 11:30:00,73.4,44.7,30.08,North,4,4.0,11.0,36,0.00,,,0.00,0798,Weather View 32 v70,2013-06-16 18:30:00,
2013-06-16 11:40:00,74.0,45.3,30.08,WNW,297,2.0,15.0,36,0.00,,,0.00,0810,Weather View 32 v70,2013-06-16 18:40:00,
2013-06-16 11:45:00,74.0,45.3,30.08,WNW,297,11.0,15.0,36,0.00,,,0.00,0811,Weather View 32 v70,2013-06-16 18:45:00,
2013-06-16 11:50:00,74.4,44.9,30.08,WNW,297,5.0,15.0,35,0.00,,,0.00,0818,Weather View 32 v70,2013-06-16 18:50:00,
2013-06-16 11:55:00,74.5,45.0,30.08,WNW,297,11.0,15.0,35,0.00,,,0.00,0821,Weather View 32 v70,2013-06-16 18:55:00,
2013-06-16 12:05:00,75.3,45.7,30.08,SSW,207,1.0,15.0,35,0.00,,,0.00,0832,Weather View 32 v70,2013-06-16 19:05:00,
2013-06-16 12:10:00,75.5,45.1,30.08,West,274,5.0,15.0,34,0.00,,,0.00,0838,Weather View 32 v70,2013-06-16 19:10:00,
2013-06-16 12:15:00,75.5,45.1,30.08,NNW,342,7.0,15.0,34,0.00,,,0.00,0844,Weather View 32 v70,2013-06-16 19:15:00,
2013-06-16 12:20:00,75.3,44.9,30.08,NW,319,4.0,15.0,34,0.00,,,0.00,0849,Weather View 32 v70,2013-06-16 19:20:00,
2013-06-16 12:25:00,76.3,45.8,30.08,North,4,3.0,15.0,34,0.00,,,0.00,0858,Weather View 32 v70,2013-06-16 19:25:00,
2013-06-16 12:35:00,76.4,45.1,30.07,North,4,7.0,13.0,33,0.00,,,0.00,0869,Weather View 32 v70,2013-06-16 19:35:00,
2013-06-16 12:40:00,76.1,43.2,30.08,NW,319,14.0,14.0,31,0.00,,,0.00,0873,Weather View 32 v70,2013-06-16 19:40:00,
2013-06-16 12:45:00,76.3,44.2,30.07,West,274,6.0,14.0,32,0.00,,,0.00,0879,Weather View 32 v70,2013-06-16 19:45:00,
2013-06-16 12:50:00,76.6,43.6,30.07,NW,319,4.0,14.0,31,0.00,,,0.00,0885,Weather View 32 v70,2013-06-16 19:50:00,
2013-06-16 12:55:00,76.9,43.0,30.07,SW,229,4.0,14.0,30,0.00,,,0.00,0887,Weather View 32 v70,2013-06-16 19:55:00,
2013-06-16 13:05:00,78.0,44.0,30.07,WSW,252,3.0,14.0,30,0.00,,,0.00,0895,Weather View 32 v70,2013-06-16 20:05:00,
2013-06-16 13:10:00,78.2,43.2,30.07,NNW,342,10.0,14.0,29,0.00,,,0.00,0898,Weather View 32 v70,2013-06-16 20:10:00,
2013-06-16 13:15:00,78.5,42.6,30.07,SSE,162,2.0,14.0,28,0.00,,,0.00,0899,Weather View 32 v70,2013-06-16 20:15:00,
2013-06-16 13:20:00,79.6,43.5,30.07,ENE,72,3.0,14.0,28,0.00,,,0.00,0902,Weather View 32 v70,2013-06-16 20:20:00,
2013-06-16 13:25:00,79.9,42.8,30.06,WSW,252,6.0,14.0,27,0.00,,,0.00,0901,Weather View 32 v70,2013-06-16 20:25:00,
2013-06-16 13:35:00,80.5,43.3,30.06,SW,229,4.0,14.0,27,0.00,,,0.00,0898,Weather View 32 v70,2013-06-16 20:35:00,
2013-06-16 13:40:00,81.0,43.8,30.06,SSW,207,0.0,14.0,27,0.00,,,0.00,0899,Weather View 32 v70,2013-06-16 20:40:00,
2013-06-16 13:45:00,80.1,44.0,30.07,WNW,297,7.0,14.0,28,0.00,,,0.00,0892,Weather View 32 v70,2013-06-16 20:45:00,
2013-06-16 13:50:00,79.8,42.7,30.07,WSW,252,11.0,14.0,27,0.00,,,0.00,0888,Weather View 32 v70,2013-06-16 20:50:00,
2013-06-16 14:00:00,79.8,44.6,30.06,NW,319,4.0,14.0,29,0.00,,,0.00,0876,Weather View 32 v70,2013-06-16 21:00:00,
2013-06-16 14:05:00,79.5,43.4,30.06,NW,319,6.0,14.0,28,0.00,,,0.00,0871,Weather View 32 v70,2013-06-16 21:05:00,
2013-06-16 14:10:00,79.2,45.0,30.07,West,274,6.0,14.0,30,0.00,,,0.00,0862,Weather View 32 v70,2013-06-16 21:10:00,
2013-06-16 14:15:00,79.0,44.8,30.06,SW,229,3.0,14.0,30,0.00,,,0.00,0858,Weather View 32 v70,2013-06-16 21:15:00,
2013-06-16 14:24:00,79.5,44.4,30.07,SW,229,6.0,14.0,29,0.00,,,0.00,0848,Weather View 32 v70,2013-06-16 21:24:00,
2013-06-16 14:30:00,79.9,46.5,30.06,West,274,3.0,14.0,31,0.00,,,0.00,0832,Weather View 32 v70,2013-06-16 21:30:00,
2013-06-16 14:35:00,79.0,44.8,30.06,NW,319,7.0,14.0,30,0.00,,,0.00,0821,Weather View 32 v70,2013-06-16 21:35:00,
2013-06-16 14:40:00,79.0,44.8,30.06,South,184,5.0,14.0,30,0.00,,,0.00,0812,Weather View 32 v70,2013-06-16 21:40:00,
2013-06-16 14:45:00,78.8,44.7,30.06,NW,319,7.0,14.0,30,0.00,,,0.00,0803,Weather View 32 v70,2013-06-16 21:45:00,
2013-06-16 14:50:00,78.8,44.7,30.06,SW,229,8.0,14.0,30,0.00,,,0.00,0793,Weather View 32 v70,2013-06-16 21:50:00,
2013-06-16 15:00:00,78.7,45.4,30.07,SE,139,3.0,14.0,31,0.00,,,0.00,0775,Weather View 32 v70,2013-06-16 22:00:00,
2013-06-16 15:05:00,78.6,47.0,30.07,SSW,207,7.0,14.0,33,0.00,,,0.00,0768,Weather View 32 v70,2013-06-16 22:05:00,
2013-06-16 15:10:00,77.1,45.7,30.07,SSW,207,8.0,14.0,33,0.00,,,0.00,0757,Weather View 32 v70,2013-06-16 22:10:00,
2013-06-16 15:15:00,78.0,47.3,30.07,SE,139,1.0,14.0,34,0.00,,,0.00,0751,Weather View 32 v70,2013-06-16 22:15:00,
2013-06-16 15:25:00,77.3,47.4,30.07,South,184,8.0,14.0,35,0.00,,,0.00,0718,Weather View 32 v70,2013-06-16 22:25:00,
2013-06-16 15:35:00,76.9,47.8,30.07,SSW,207,2.0,15.0,36,0.00,,,0.00,0721,Weather View 32 v70,2013-06-16 22:35:00,
2013-06-16 15:40:00,77.3,47.4,30.07,SSE,162,5.0,15.0,35,0.00,,,0.00,0713,Weather View 32 v70,2013-06-16 22:40:00,
2013-06-16 15:45:00,77.2,47.3,30.07,South,184,6.0,15.0,35,0.00,,,0.00,0707,Weather View 32 v70,2013-06-16 22:45:00,
2013-06-16 15:50:00,77.3,47.4,30.07,South,184,5.0,15.0,35,0.00,,,0.00,0698,Weather View 32 v70,2013-06-16 22:50:00,
2013-06-16 16:00:00,77.1,47.3,30.07,SSW,207,4.0,15.0,35,0.00,,,0.00,0684,Weather View 32 v70,2013-06-16 23:00:00,
2013-06-16 16:05:00,77.2,47.3,30.07,WNW,297,4.0,15.0,35,0.00,,,0.00,0676,Weather View 32 v70,2013-06-16 23:05:00,
2013-06-16 16:15:00,76.5,46.7,30.07,SSW,207,7.0,15.0,35,0.00,,,0.00,0658,Weather View 32 v70,2013-06-16 23:15:00,
2013-06-16 16:20:00,77.2,48.1,30.07,SSW,207,4.0,15.0,36,0.00,,,0.00,0650,Weather View 32 v70,2013-06-16 23:20:00,
2013-06-16 16:25:00,77.0,47.9,30.07,WSW,252,3.0,15.0,36,0.00,,,0.00,0641,Weather View 32 v70,2013-06-16 23:25:00,
2013-06-16 16:35:00,76.5,47.5,30.07,West,274,1.0,14.0,36,0.00,,,0.00,0619,Weather View 32 v70,2013-06-16 23:35:00,
2013-06-16 16:45:00,77.5,49.1,30.06,South,184,1.0,13.0,37,0.00,,,0.00,0599,Weather View 32 v70,2013-06-16 23:45:00,
2013-06-16 16:55:00,76.6,49.0,30.06,SW,229,3.0,13.0,38,0.00,,,0.00,0572,Weather View 32 v70,2013-06-16 23:55:00,
2013-06-16 17:00:00,76.7,49.1,30.06,West,274,4.0,13.0,38,0.00,,,0.00,0560,Weather View 32 v70,2013-06-17 00:00:00,
2013-06-16 17:05:00,76.6,49.0,30.06,NW,319,3.0,13.0,38,0.00,,,0.00,0548,Weather View 32 v70,2013-06-17 00:05:00,
2013-06-16 17:15:00,76.5,49.6,30.07,SSW,207,3.0,13.0,39,0.00,,,0.00,0522,Weather View 32 v70,2013-06-17 00:15:00,
2013-06-16 17:20:00,76.1,48.6,30.07,SSE,162,6.0,13.0,38,0.00,,,0.00,0509,Weather View 32 v70,2013-06-17 00:20:00,
2013-06-16 17:25:00,74.5,48.5,30.07,SE,139,8.0,21.0,40,0.00,,,0.00,0496,Weather View 32 v70,2013-06-17 00:25:00,
2013-06-16 17:30:00,73.9,48.6,30.07,ESE,117,3.0,21.0,41,0.00,,,0.00,0483,Weather View 32 v70,2013-06-17 00:30:00,
2013-06-16 17:35:00,74.2,49.6,30.06,ESE,117,3.0,21.0,42,0.00,,,0.00,0472,Weather View 32 v70,2013-06-17 00:35:00,
2013-06-16 17:40:00,74.0,49.4,30.06,South,184,3.0,21.0,42,0.00,,,0.00,0460,Weather View 32 v70,2013-06-17 00:40:00,
2013-06-16 17:50:00,73.7,49.1,30.06,SE,139,6.0,21.0,42,0.00,,,0.00,0434,Weather View 32 v70,2013-06-17 00:50:00,
2013-06-16 17:55:00,73.2,49.3,30.06,SSW,207,3.0,21.0,43,0.00,,,0.00,0421,Weather View 32 v70,2013-06-17 00:55:00,
2013-06-16 18:05:00,72.6,49.4,30.06,South,184,7.0,21.0,44,0.00,,,0.00,0397,Weather View 32 v70,2013-06-17 01:05:00,
2013-06-16 18:10:00,72.3,49.1,30.06,SE,139,3.0,21.0,44,0.00,,,0.00,0385,Weather View 32 v70,2013-06-17 01:10:00,
2013-06-16 18:20:00,73.5,50.2,30.06,NNW,342,3.0,21.0,44,0.00,,,0.00,0363,Weather View 32 v70,2013-06-17 01:20:00,
2013-06-16 18:25:00,73.7,49.7,30.06,North,4,3.0,15.0,43,0.00,,,0.00,0350,Weather View 32 v70,2013-06-17 01:25:00,
2013-06-16 18:30:00,73.8,49.8,30.07,West,274,3.0,13.0,43,0.00,,,0.00,0338,Weather View 32 v70,2013-06-17 01:30:00,
2013-06-16 18:35:00,74.1,50.1,30.07,WSW,252,3.0,13.0,43,0.00,,,0.00,0326,Weather View 32 v70,2013-06-17 01:35:00,
2013-06-16 18:40:00,73.1,49.2,30.07,SSW,207,4.0,13.0,43,0.00,,,0.00,0313,Weather View 32 v70,2013-06-17 01:40:00,
2013-06-16 18:50:00,71.8,49.3,30.07,SSW,207,6.0,13.0,45,0.00,,,0.00,0288,Weather View 32 v70,2013-06-17 01:50:00,
2013-06-16 18:55:00,71.2,49.3,30.07,South,184,5.0,13.0,46,0.00,,,0.00,0275,Weather View 32 v70,2013-06-17 01:55:00,
2013-06-16 19:00:00,71.1,49.2,30.07,SE,139,1.0,11.0,46,0.00,,,0.00,0263,Weather View 32 v70,2013-06-17 02:00:00,
2013-06-16 19:05:00,71.2,49.3,30.07,South,184,3.0,9.0,46,0.00,,,0.00,0251,Weather View 32 v70,2013-06-17 02:05:00,
2013-06-16 19:10:00,71.6,49.7,30.07,SSE,162,1.0,9.0,46,0.00,,,0.00,0238,Weather View 32 v70,2013-06-17 02:10:00,
2013-06-16 19:15:00,71.8,49.3,30.07,SSW,207,1.0,9.0,45,0.00,,,0.00,0225,Weather View 32 v70,2013-06-17 02:15:00,
2013-06-16 19:20:00,72.0,49.4,30.07,SE,139,0.0,9.0,45,0.00,,,0.00,0212,Weather View 32 v70,2013-06-17 02:20:00,
2013-06-16 19:27:00,72.3,49.7,30.08,SE,139,0.0,9.0,45,0.00,,,0.00,0198,Weather View 32 v70,2013-06-17 02:27:00,
2013-06-16 19:35:00,71.1,48.6,30.08,SSW,207,4.0,9.0,45,0.00,,,0.00,0171,Weather View 32 v70,2013-06-17 02:35:00,
2013-06-16 19:40:00,69.6,49.0,30.08,SSW,207,6.0,9.0,48,0.00,,,0.00,0024,Weather View 32 v70,2013-06-17 02:40:00,
2013-06-16 19:45:00,68.6,49.2,30.08,SSW,207,4.0,9.0,50,0.00,,,0.00,0020,Weather View 32 v70,2013-06-17 02:45:00,
2013-06-16 19:50:00,67.9,49.1,30.08,South,184,6.0,8.0,51,0.00,,,0.00,0019,Weather View 32 v70,2013-06-17 02:50:00,
2013-06-16 20:00:00,67.3,49.5,30.08,SSW,207,5.0,7.0,53,0.00,,,0.00,0016,Weather View 32 v70,2013-06-17 03:00:00,
2013-06-16 20:04:00,66.8,49.6,30.08,SSW,207,3.0,7.0,54,0.00,,,0.00,0015,Weather View 32 v70,2013-06-17 03:04:00,
2013-06-16 20:10:00,66.4,49.7,30.08,SSW,207,4.0,8.0,55,0.00,,,0.00,0013,Weather View 32 v70,2013-06-17 03:10:00,
2013-06-16 20:15:00,65.9,49.7,30.08,SW,229,6.0,11.0,56,0.00,,,0.00,0012,Weather View 32 v70,2013-06-17 03:15:00,
2013-06-16 20:20:00,65.3,50.1,30.08,SSW,207,7.0,11.0,58,0.00,,,0.00,0010,Weather View 32 v70,2013-06-17 03:20:00,
2013-06-16 20:27:00,64.9,49.7,30.08,SW,229,6.0,11.0,58,0.00,,,0.00,0008,Weather View 32 v70,2013-06-17 03:27:00,
2013-06-16 20:35:00,64.3,49.6,30.08,SSW,207,6.0,11.0,59,0.00,,,0.00,0005,Weather View 32 v70,2013-06-17 03:35:00,
2013-06-16 20:45:00,64.1,49.9,30.08,SSW,207,3.0,11.0,60,0.00,,,0.00,0002,Weather View 32 v70,2013-06-17 03:45:00,
2013-06-16 20:50:00,64.0,49.8,30.08,WSW,252,5.0,11.0,60,0.00,,,0.00,0002,Weather View 32 v70,2013-06-17 03:50:00,
2013-06-16 20:55:00,64.0,49.8,30.08,SSW,207,3.0,11.0,60,0.00,,,0.00,0002,Weather View 32 v70,2013-06-17 03:55:00,
2013-06-16 21:00:00,64.0,49.8,30.08,SSW,207,4.0,11.0,60,0.00,,,0.00,0002,Weather View 32 v70,2013-06-17 04:00:00,
2013-06-16 21:05:00,63.6,49.9,30.09,SSW,207,6.0,11.0,61,0.00,,,0.00,0002,Weather View 32 v70,2013-06-17 04:05:00,
2013-06-16 21:09:00,63.0,50.2,30.08,SW,229,7.0,11.0,63,0.00,,,0.00,0002,Weather View 32 v70,2013-06-17 04:09:00,
2013-06-16 21:15:00,62.3,49.9,30.08,SSW,207,9.0,13.0,64,0.00,,,0.00,0001,Weather View 32 v70,2013-06-17 04:15:00,
2013-06-16 21:20:00,62.0,50.1,30.09,SW,229,8.0,13.0,65,0.00,,,0.00,0001,Weather View 32 v70,2013-06-17 04:20:00,
2013-06-16 21:25:00,62.1,50.2,30.09,West,274,3.0,13.0,65,0.00,,,0.00,0001,Weather View 32 v70,2013-06-17 04:25:00,
2013-06-16 21:28:00,62.1,50.2,30.09,West,274,3.0,13.0,65,0.00,,,0.00,0001,Weather View 32 v70,2013-06-17 04:28:00,
2013-06-16 21:35:00,61.9,49.6,30.09,SSW,207,3.0,13.0,64,0.00,,,0.00,0002,Weather View 32 v70,2013-06-17 04:35:00,
2013-06-16 21:45:00,61.4,49.5,30.09,SSE,162,2.0,13.0,65,0.00,,,0.00,0002,Weather View 32 v70,2013-06-17 04:45:00,
2013-06-16 21:50:00,61.5,49.6,30.09,South,184,4.0,13.0,65,0.00,,,0.00,0001,Weather View 32 v70,2013-06-17 04:50:00,
2013-06-16 21:55:00,61.2,49.7,30.09,South,184,4.0,13.0,66,0.00,,,0.00,0001,Weather View 32 v70,2013-06-17 04:55:00,
2013-06-16 22:00:00,60.9,49.0,30.09,SE,139,0.0,13.0,65,0.00,,,0.00,0001,Weather View 32 v70,2013-06-17 05:00:00,
2013-06-16 22:05:00,60.8,49.3,30.09,West,274,2.0,13.0,66,0.00,,,0.00,0002,Weather View 32 v70,2013-06-17 05:05:00,
2013-06-16 22:15:00,60.7,50.0,30.09,NNE,27,0.0,12.0,68,0.00,,,0.00,0001,Weather View 32 v70,2013-06-17 05:15:00,
2013-06-16 22:20:00,60.5,49.9,30.09,NE,49,1.0,12.0,68,0.00,,,0.00,0002,Weather View 32 v70,2013-06-17 05:20:00,
2013-06-16 22:29:00,60.4,50.2,30.09,NW,319,3.0,12.0,69,0.00,,,0.00,0001,Weather View 32 v70,2013-06-17 05:29:00,
2013-06-16 22:35:00,60.1,49.9,30.10,NNW,342,2.0,12.0,69,0.00,,,0.00,0001,Weather View 32 v70,2013-06-17 05:35:00,
2013-06-16 22:40:00,59.8,49.6,30.10,West,274,0.0,12.0,69,0.00,,,0.00,0002,Weather View 32 v70,2013-06-17 05:40:00,
2013-06-16 22:50:00,58.8,49.0,30.10,SW,229,0.0,12.0,70,0.00,,,0.00,0001,Weather View 32 v70,2013-06-17 05:50:00,
2013-06-16 22:55:00,58.3,48.5,30.10,SSW,207,0.0,10.0,70,0.00,,,0.00,0002,Weather View 32 v70,2013-06-17 05:55:00,
2013-06-16 23:00:00,58.0,48.6,30.10,SW,229,0.0,4.0,71,0.00,,,0.00,0002,Weather View 32 v70,2013-06-17 06:00:00,
2013-06-16 23:05:00,57.8,48.8,30.10,SE,139,0.0,4.0,72,0.00,,,0.00,0002,Weather View 32 v70,2013-06-17 06:05:00,
2013-06-16 23:10:00,57.5,48.9,30.10,South,184,0.0,4.0,73,0.00,,,0.00,0001,Weather View 32 v70,2013-06-17 06:10:00,
2013-06-16 23:20:00,56.9,48.7,30.10,WSW,252,0.0,4.0,74,0.00,,,0.00,0001,Weather View 32 v70,2013-06-17 06:20:00,
2013-06-16 23:25:00,56.8,48.6,30.10,South,184,0.0,4.0,74,0.00,,,0.00,0001,Weather View 32 v70,2013-06-17 06:25:00,
2013-06-16 23:30:00,56.7,48.8,30.10,SW,229,0.0,2.0,75,0.00,,,0.00,0002,Weather View 32 v70,2013-06-17 06:30:00,
2013-06-16 23:35:00,56.6,48.8,30.09,SSW,207,0.0,2.0,75,0.00,,,0.00,0001,Weather View 32 v70,2013-06-17 06:35:00,
2013-06-16 23:40:00,56.3,48.8,30.10,West,274,0.0,2.0,76,0.00,,,0.00,0002,Weather View 32 v70,2013-06-17 06:40:00,
2013-06-16 23:45:00,56.2,48.7,30.10,WSW,252,0.0,2.0,76,0.00,,,0.00,0001,Weather View 32 v70,2013-06-17 06:45:00,
2013-06-16 23:50:00,56.0,48.5,30.10,South,184,0.0,0.0,76,0.00,,,0.00,0002,Weather View 32 v70,2013-06-17 06:50:00,